Tropical Cyclones
[Index]
Main Index Home Page Stock Weather Photos Extreme Storms Discussion Storm News and Storm Chasing Reports Tropical Cyclones / Hurricanes / Typhoons Weather Data and Links Wild Fires / Bushfires Weather Observation Techniques Weather Picture Catalogue Tornado Pictures and Reports Stock Video Footage and DVDs for sale
Season 1983-1984 Tropical Cyclone ANDRY Track Map
Season 1983-1984 Summaries: [BoM-AU] [JTWC-AU] [JTWC-SIO] [JTWC-SPAC] [JTWC-SH]
<<- Previous TC | JTWC 1983-1984 Season | Next TC ->>

click for intensity scale information  Lat/long Grid: Show Hide

 Date Labels: Show Hide

Joint Typhoon Warning Centre Cyclone Data

Name: ANDRY

05 Dec 1983 18:00 UTC to 16 Dec 1983 06:00 UTC

    date/time    lat    long     hPa   cat  kts
1983-12-05 18    9.6    65.0                  30          
1983-12-06 00    9.9    64.8                  35          
1983-12-06 06   10.0    64.2            1     40          
1983-12-06 12    9.9    63.2            1     45          
1983-12-06 18    9.8    62.2            1     50          
1983-12-07 00    9.8    61.2            2     60          
1983-12-07 06    9.8    60.2            3     75          
1983-12-07 12    9.8    59.3            3     75          
1983-12-07 18    9.8    58.5            3     75          
1983-12-08 00    9.9    57.4            3     85          
1983-12-08 06   10.1    56.4            3     95          
1983-12-08 12   10.2    55.6            3     95          
1983-12-08 18   10.3    54.8            4    100          
1983-12-09 00   10.5    54.1            4    100          
1983-12-09 06   10.6    53.3            4    105          
1983-12-09 12   10.6    52.6            4    110          
1983-12-09 18   10.7    51.8            4    115          
1983-12-10 00   10.7    51.1            4    120          
1983-12-10 06   10.8    50.4            5    125          
1983-12-10 12   10.9    49.5            5    130          
1983-12-10 18   11.1    48.7            5    125          
1983-12-11 00   11.4    48.0            4    120          
1983-12-11 06   11.9    47.4            4    115          
1983-12-11 12   12.6    46.8            4    110          
1983-12-11 18   13.5    46.2            4    105          
1983-12-12 00   14.5    45.8            4    100          
1983-12-12 06   15.5    45.6            4    100          
1983-12-12 12   16.3    45.6            2     65          
1983-12-12 18   17.1    45.9                  30          
1983-12-13 00   18.1    46.3                  30          
1983-12-13 06   19.0    46.9                  25          
1983-12-13 12   19.5    47.9                  25          
1983-12-13 18   19.9    48.9                  20          
1983-12-14 00   20.4    49.3                  25          
1983-12-14 06   21.0    49.7                  35          
1983-12-14 12   21.5    50.4            1     40          
1983-12-14 18   22.1    50.9            1     45          
1983-12-15 00   22.3    50.3            1     40          
1983-12-15 06   22.3    49.4                  35          
1983-12-15 12   22.4    48.8                  35          
1983-12-15 18   22.6    48.3                  30          
1983-12-16 00   22.8    47.9                  30          
1983-12-16 06   23.0    47.5                  25          
Winds are 1-min average.

Tropical cyclone tracks developed by Michael Bath using data from the Joint Typhoon Warning Centre Best Tracks and Google Maps.


[Australian Severe Weather index] [Copyright Notice] [Email Contacts] [Search This Site] [Privacy Policy]
Document: tropical_cyclone_andry.htm Updated: 18 September 2016